sensor_id;sensor_type;location;lat;lon;timestamp;pressure;altitude;pressure_sealevel;temperature;humidity
76940;BME280;65885;55.848;35.916;2023-05-29T00:00:30;99629.03;;;6.33;60.42
76940;BME280;65885;55.848;35.916;2023-05-29T00:02:58;99625.25;;;6.48;60.61
76940;BME280;65885;55.848;35.916;2023-05-29T00:05:27;99631.81;;;6.65;60.52
76940;BME280;65885;55.848;35.916;2023-05-29T00:07:55;99629.66;;;6.83;60.35
76940;BME280;65885;55.848;35.916;2023-05-29T00:10:23;99630.06;;;7.02;60.00
76940;BME280;65885;55.848;35.916;2023-05-29T00:12:50;99628.84;;;7.18;60.61
76940;BME280;65885;55.848;35.916;2023-05-29T00:15:18;99624.94;;;7.34;59.87
76940;BME280;65885;55.848;35.916;2023-05-29T00:17:46;99629.78;;;7.48;59.40
76940;BME280;65885;55.848;35.916;2023-05-29T00:20:13;99632.19;;;7.56;59.39
76940;BME280;65885;55.848;35.916;2023-05-29T00:22:40;99634.81;;;7.56;59.46
76940;BME280;65885;55.848;35.916;2023-05-29T00:25:09;99632.38;;;7.48;59.70
76940;BME280;65885;55.848;35.916;2023-05-29T00:27:37;99636.13;;;7.38;60.61
76940;BME280;65885;55.848;35.916;2023-05-29T00:30:05;99638.19;;;7.25;61.58
76940;BME280;65885;55.848;35.916;2023-05-29T00:32:33;99638.56;;;7.11;60.84
76940;BME280;65885;55.848;35.916;2023-05-29T00:35:01;99642.25;;;7.01;60.85
76940;BME280;65885;55.848;35.916;2023-05-29T00:37:29;99637.34;;;6.89;60.23
76940;BME280;65885;55.848;35.916;2023-05-29T00:39:57;99640.16;;;6.80;60.70
76940;BME280;65885;55.848;35.916;2023-05-29T00:42:25;99639.50;;;6.70;60.67
76940;BME280;65885;55.848;35.916;2023-05-29T00:44:53;99639.75;;;6.59;61.46
76940;BME280;65885;55.848;35.916;2023-05-29T00:47:20;99645.19;;;6.49;62.07
76940;BME280;65885;55.848;35.916;2023-05-29T00:49:48;99650.63;;;6.38;62.01
76940;BME280;65885;55.848;35.916;2023-05-29T00:52:17;99653.44;;;6.29;61.49
76940;BME280;65885;55.848;35.916;2023-05-29T00:54:45;99651.88;;;6.20;60.74
76940;BME280;65885;55.848;35.916;2023-05-29T00:57:14;99653.75;;;6.12;61.17
76940;BME280;65885;55.848;35.916;2023-05-29T00:59:45;99652.19;;;6.03;61.82
76940;BME280;65885;55.848;35.916;2023-05-29T01:02:14;99652.38;;;5.94;60.78
76940;BME280;65885;55.848;35.916;2023-05-29T01:04:44;99649.00;;;5.88;60.66
76940;BME280;65885;55.848;35.916;2023-05-29T01:07:12;99655.16;;;5.83;62.22
76940;BME280;65885;55.848;35.916;2023-05-29T01:09:41;99654.28;;;5.84;62.38
76940;BME280;65885;55.848;35.916;2023-05-29T01:12:19;99665.34;;;5.97;62.21
76940;BME280;65885;55.848;35.916;2023-05-29T01:15:01;99662.47;;;6.13;61.69
76940;BME280;65885;55.848;35.916;2023-05-29T01:17:39;99657.72;;;6.31;60.96
76940;BME280;65885;55.848;35.916;2023-05-29T01:20:22;99663.41;;;6.50;60.21
76940;BME280;65885;55.848;35.916;2023-05-29T01:23:03;99663.91;;;6.67;60.28
76940;BME280;65885;55.848;35.916;2023-05-29T01:25:46;99664.41;;;6.83;61.28
76940;BME280;65885;55.848;35.916;2023-05-29T01:34:59;99661.66;;;6.89;62.13
76940;BME280;65885;55.848;35.916;2023-05-29T01:37:26;99663.69;;;6.77;62.41
76940;BME280;65885;55.848;35.916;2023-05-29T01:39:54;99662.19;;;6.66;61.52
76940;BME280;65885;55.848;35.916;2023-05-29T01:42:22;99666.78;;;6.54;60.82
76940;BME280;65885;55.848;35.916;2023-05-29T01:44:49;99668.78;;;6.43;61.27
76940;BME280;65885;55.848;35.916;2023-05-29T01:47:17;99662.06;;;6.31;62.52
76940;BME280;65885;55.848;35.916;2023-05-29T01:49:44;99664.06;;;6.20;61.44
76940;BME280;65885;55.848;35.916;2023-05-29T01:52:15;99661.66;;;6.09;59.83
76940;BME280;65885;55.848;35.916;2023-05-29T01:54:43;99672.16;;;6.03;59.87
76940;BME280;65885;55.848;35.916;2023-05-29T01:57:11;99665.38;;;5.96;60.11
76940;BME280;65885;55.848;35.916;2023-05-29T01:59:38;99664.59;;;5.89;60.54
76940;BME280;65885;55.848;35.916;2023-05-29T02:02:09;99662.13;;;5.83;62.43
76940;BME280;65885;55.848;35.916;2023-05-29T02:04:37;99667.44;;;5.77;63.48
76940;BME280;65885;55.848;35.916;2023-05-29T02:07:05;99671.84;;;5.72;62.74
76940;BME280;65885;55.848;35.916;2023-05-29T02:09:35;99667.66;;;5.65;60.55
76940;BME280;65885;55.848;35.916;2023-05-29T02:12:02;99673.75;;;5.64;60.66
76940;BME280;65885;55.848;35.916;2023-05-29T02:14:31;99672.06;;;5.61;59.89
76940;BME280;65885;55.848;35.916;2023-05-29T02:16:58;99674.69;;;5.60;59.91
76940;BME280;65885;55.848;35.916;2023-05-29T02:19:27;99670.28;;;5.63;60.95
76940;BME280;65885;55.848;35.916;2023-05-29T02:21:54;99674.41;;;5.75;62.95
76940;BME280;65885;55.848;35.916;2023-05-29T02:24:22;99679.34;;;5.92;61.10
76940;BME280;65885;55.848;35.916;2023-05-29T02:26:50;99672.84;;;6.14;59.76
76940;BME280;65885;55.848;35.916;2023-05-29T02:29:18;99675.88;;;6.36;61.07
76940;BME280;65885;55.848;35.916;2023-05-29T02:31:46;99678.06;;;6.54;61.36
76940;BME280;65885;55.848;35.916;2023-05-29T02:34:13;99683.78;;;6.72;60.64
76940;BME280;65885;55.848;35.916;2023-05-29T02:36:41;99685.16;;;6.88;60.06
76940;BME280;65885;55.848;35.916;2023-05-29T02:39:09;99677.88;;;7.02;59.44
76940;BME280;65885;55.848;35.916;2023-05-29T02:41:37;99680.25;;;7.13;58.00
76940;BME280;65885;55.848;35.916;2023-05-29T02:44:06;99684.47;;;7.17;58.51
76940;BME280;65885;55.848;35.916;2023-05-29T02:46:33;99694.09;;;7.15;58.51
76940;BME280;65885;55.848;35.916;2023-05-29T02:49:00;99683.78;;;7.09;60.08
76940;BME280;65885;55.848;35.916;2023-05-29T02:51:28;99692.66;;;7.03;61.78
76940;BME280;65885;55.848;35.916;2023-05-29T02:53:55;99698.00;;;6.97;61.59
76940;BME280;65885;55.848;35.916;2023-05-29T02:56:23;99690.25;;;6.92;62.10
76940;BME280;65885;55.848;35.916;2023-05-29T02:58:50;99689.50;;;6.87;62.62
76940;BME280;65885;55.848;35.916;2023-05-29T03:01:19;99693.00;;;6.86;63.49
76940;BME280;65885;55.848;35.916;2023-05-29T03:03:46;99692.22;;;6.83;63.76
76940;BME280;65885;55.848;35.916;2023-05-29T03:06:14;99700.03;;;6.83;64.87
76940;BME280;65885;55.848;35.916;2023-05-29T03:08:43;99700.03;;;6.83;63.79
76940;BME280;65885;55.848;35.916;2023-05-29T03:11:12;99703.47;;;6.85;64.17
76940;BME280;65885;55.848;35.916;2023-05-29T03:13:40;99698.22;;;6.88;66.09
76940;BME280;65885;55.848;35.916;2023-05-29T03:16:08;99699.03;;;6.90;66.09
76940;BME280;65885;55.848;35.916;2023-05-29T03:18:37;99702.41;;;6.93;66.28
76940;BME280;65885;55.848;35.916;2023-05-29T03:21:05;99700.59;;;6.97;65.08
76940;BME280;65885;55.848;35.916;2023-05-29T03:23:33;99703.94;;;7.04;65.96
76940;BME280;65885;55.848;35.916;2023-05-29T03:26:01;99706.38;;;7.10;66.64
76940;BME280;65885;55.848;35.916;2023-05-29T03:28:29;99718.41;;;7.15;67.01
76940;BME280;65885;55.848;35.916;2023-05-29T03:30:56;99714.81;;;7.21;67.33
76940;BME280;65885;55.848;35.916;2023-05-29T03:33:24;99716.25;;;7.33;68.52
76940;BME280;65885;55.848;35.916;2023-05-29T03:35:53;99716.69;;;7.51;68.98
76940;BME280;65885;55.848;35.916;2023-05-29T03:38:21;99719.53;;;7.76;68.28
76940;BME280;65885;55.848;35.916;2023-05-29T03:40:49;99714.50;;;8.03;67.80
76940;BME280;65885;55.848;35.916;2023-05-29T03:43:16;99718.97;;;8.30;66.24
76940;BME280;65885;55.848;35.916;2023-05-29T03:45:43;99714.66;;;8.60;66.48
76940;BME280;65885;55.848;35.916;2023-05-29T03:48:11;99718.22;;;8.87;67.08
76940;BME280;65885;55.848;35.916;2023-05-29T03:50:38;99720.13;;;9.10;66.33
76940;BME280;65885;55.848;35.916;2023-05-29T03:53:07;99725.56;;;9.32;64.69
76940;BME280;65885;55.848;35.916;2023-05-29T03:55:34;99728.47;;;9.50;63.34
76940;BME280;65885;55.848;35.916;2023-05-29T03:58:02;99724.56;;;9.63;64.30
76940;BME280;65885;55.848;35.916;2023-05-29T04:00:30;99728.78;;;9.67;64.15
76940;BME280;65885;55.848;35.916;2023-05-29T04:02:57;99726.13;;;9.68;63.08
76940;BME280;65885;55.848;35.916;2023-05-29T04:05:25;99731.31;;;9.70;64.24
76940;BME280;65885;55.848;35.916;2023-05-29T04:07:53;99729.50;;;9.72;64.83
76940;BME280;65885;55.848;35.916;2023-05-29T04:10:21;99729.41;;;9.75;65.60
76940;BME280;65885;55.848;35.916;2023-05-29T04:12:49;99730.88;;;9.82;65.54
76940;BME280;65885;55.848;35.916;2023-05-29T04:15:17;99730.69;;;9.88;65.07
76940;BME280;65885;55.848;35.916;2023-05-29T04:17:44;99741.00;;;9.93;63.37
76940;BME280;65885;55.848;35.916;2023-05-29T04:20:12;99731.28;;;9.96;62.90
76940;BME280;65885;55.848;35.916;2023-05-29T04:22:39;99728.50;;;10.01;62.79
76940;BME280;65885;55.848;35.916;2023-05-29T04:25:07;99725.75;;;10.06;62.92
76940;BME280;65885;55.848;35.916;2023-05-29T04:27:36;99719.47;;;10.10;63.41
76940;BME280;65885;55.848;35.916;2023-05-29T04:30:05;99728.03;;;10.15;63.84
76940;BME280;65885;55.848;35.916;2023-05-29T04:32:32;99731.31;;;10.20;63.59
76940;BME280;65885;55.848;35.916;2023-05-29T04:35:00;99730.28;;;10.25;63.73
76940;BME280;65885;55.848;35.916;2023-05-29T04:37:29;99723.13;;;10.31;63.74
76940;BME280;65885;55.848;35.916;2023-05-29T04:39:57;99726.41;;;10.37;62.20
76940;BME280;65885;55.848;35.916;2023-05-29T04:42:24;99716.47;;;10.45;61.47
76940;BME280;65885;55.848;35.916;2023-05-29T04:44:53;99727.41;;;10.56;61.04
76940;BME280;65885;55.848;35.916;2023-05-29T04:47:21;99727.94;;;10.66;61.03
76940;BME280;65885;55.848;35.916;2023-05-29T04:49:48;99724.91;;;10.77;60.84
76940;BME280;65885;55.848;35.916;2023-05-29T04:52:16;99721.00;;;10.89;61.28
76940;BME280;65885;55.848;35.916;2023-05-29T04:54:43;99726.72;;;10.98;61.02
76940;BME280;65885;55.848;35.916;2023-05-29T04:57:11;99722.75;;;11.10;60.66
76940;BME280;65885;55.848;35.916;2023-05-29T04:59:38;99730.22;;;11.21;59.81
76940;BME280;65885;55.848;35.916;2023-05-29T05:02:08;99725.41;;;11.32;59.80
76940;BME280;65885;55.848;35.916;2023-05-29T05:04:35;99722.22;;;11.46;59.73
76940;BME280;65885;55.848;35.916;2023-05-29T05:07:05;99727.84;;;11.58;60.10
76940;BME280;65885;55.848;35.916;2023-05-29T05:09:33;99719.38;;;11.72;59.75
76940;BME280;65885;55.848;35.916;2023-05-29T05:12:00;99721.44;;;11.86;59.67
76940;BME280;65885;55.848;35.916;2023-05-29T05:14:28;99721.72;;;12.00;59.42
76940;BME280;65885;55.848;35.916;2023-05-29T05:16:56;99717.50;;;12.16;59.25
76940;BME280;65885;55.848;35.916;2023-05-29T05:19:24;99728.00;;;12.37;59.10
76940;BME280;65885;55.848;35.916;2023-05-29T05:21:52;99724.34;;;12.60;58.37
76940;BME280;65885;55.848;35.916;2023-05-29T05:24:19;99723.31;;;12.83;58.15
76940;BME280;65885;55.848;35.916;2023-05-29T05:26:47;99727.66;;;13.02;57.42
76940;BME280;65885;55.848;35.916;2023-05-29T05:29:15;99726.84;;;13.19;56.66
76940;BME280;65885;55.848;35.916;2023-05-29T05:31:43;99730.50;;;13.36;55.89
76940;BME280;65885;55.848;35.916;2023-05-29T05:34:10;99728.81;;;13.52;56.16
76940;BME280;65885;55.848;35.916;2023-05-29T05:36:39;99730.84;;;13.64;54.16
76940;BME280;65885;55.848;35.916;2023-05-29T05:39:06;99723.81;;;13.82;54.55
76940;BME280;65885;55.848;35.916;2023-05-29T05:41:34;99732.41;;;14.03;54.89
76940;BME280;65885;55.848;35.916;2023-05-29T05:44:01;99736.28;;;14.30;54.75
76940;BME280;65885;55.848;35.916;2023-05-29T05:46:29;99739.06;;;14.62;54.02
76940;BME280;65885;55.848;35.916;2023-05-29T05:48:57;99735.69;;;14.91;53.45
76940;BME280;65885;55.848;35.916;2023-05-29T05:51:24;99736.63;;;15.22;52.50
76940;BME280;65885;55.848;35.916;2023-05-29T05:53:54;99728.06;;;15.48;51.72
76940;BME280;65885;55.848;35.916;2023-05-29T05:56:21;99730.38;;;15.70;51.17
76940;BME280;65885;55.848;35.916;2023-05-29T05:58:48;99732.63;;;15.92;50.83
76940;BME280;65885;55.848;35.916;2023-05-29T06:01:15;99730.50;;;16.13;50.57
76940;BME280;65885;55.848;35.916;2023-05-29T06:03:44;99731.78;;;16.36;50.44
76940;BME280;65885;55.848;35.916;2023-05-29T06:06:11;99732.75;;;16.63;50.06
76940;BME280;65885;55.848;35.916;2023-05-29T06:08:38;99732.56;;;16.95;49.56
76940;BME280;65885;55.848;35.916;2023-05-29T06:11:08;99739.13;;;17.31;49.28
76940;BME280;65885;55.848;35.916;2023-05-29T06:13:35;99734.06;;;17.67;49.57
76940;BME280;65885;55.848;35.916;2023-05-29T06:16:03;99735.78;;;18.08;48.96
76940;BME280;65885;55.848;35.916;2023-05-29T06:18:31;99734.88;;;18.47;48.34
76940;BME280;65885;55.848;35.916;2023-05-29T06:20:58;99735.47;;;18.89;47.98
76940;BME280;65885;55.848;35.916;2023-05-29T06:23:27;99746.66;;;19.31;46.59
76940;BME280;65885;55.848;35.916;2023-05-29T06:25:54;99746.78;;;19.66;45.90
76940;BME280;65885;55.848;35.916;2023-05-29T06:28:23;99736.38;;;19.98;45.14
76940;BME280;65885;55.848;35.916;2023-05-29T06:30:50;99739.97;;;20.32;44.52
76940;BME280;65885;55.848;35.916;2023-05-29T06:33:17;99739.22;;;20.65;44.04
76940;BME280;65885;55.848;35.916;2023-05-29T06:35:46;99735.09;;;20.95;43.20
76940;BME280;65885;55.848;35.916;2023-05-29T06:38:13;99734.31;;;21.26;42.60
76940;BME280;65885;55.848;35.916;2023-05-29T06:40:41;99733.81;;;21.55;41.95
76940;BME280;65885;55.848;35.916;2023-05-29T06:43:08;99736.13;;;21.80;40.93
76940;BME280;65885;55.848;35.916;2023-05-29T06:45:37;99739.66;;;22.02;39.84
76940;BME280;65885;55.848;35.916;2023-05-29T06:48:05;99744.59;;;22.18;39.09
76940;BME280;65885;55.848;35.916;2023-05-29T06:50:33;99742.97;;;22.26;38.60
76940;BME280;65885;55.848;35.916;2023-05-29T06:53:01;99751.31;;;22.33;38.12
76940;BME280;65885;55.848;35.916;2023-05-29T06:55:28;99738.28;;;22.39;37.46
76940;BME280;65885;55.848;35.916;2023-05-29T06:57:55;99736.06;;;22.45;36.88
76940;BME280;65885;55.848;35.916;2023-05-29T07:00:22;99735.66;;;22.49;35.42
76940;BME280;65885;55.848;35.916;2023-05-29T07:02:51;99736.34;;;22.51;35.39
76940;BME280;65885;55.848;35.916;2023-05-29T07:05:19;99748.03;;;22.50;35.17
76940;BME280;65885;55.848;35.916;2023-05-29T07:07:46;99741.84;;;22.50;35.01
76940;BME280;65885;55.848;35.916;2023-05-29T07:10:13;99746.19;;;22.51;35.16
76940;BME280;65885;55.848;35.916;2023-05-29T07:12:41;99740.63;;;22.54;34.82
76940;BME280;65885;55.848;35.916;2023-05-29T07:15:09;99736.25;;;22.53;34.33
76940;BME280;65885;55.848;35.916;2023-05-29T07:17:37;99741.00;;;22.49;33.79
76940;BME280;65885;55.848;35.916;2023-05-29T07:20:07;99736.97;;;22.55;34.22
76940;BME280;65885;55.848;35.916;2023-05-29T07:22:34;99729.41;;;22.60;33.10
76940;BME280;65885;55.848;35.916;2023-05-29T07:25:02;99736.16;;;22.64;32.53
76940;BME280;65885;55.848;35.916;2023-05-29T07:27:30;99738.53;;;22.67;31.26
76940;BME280;65885;55.848;35.916;2023-05-29T07:29:57;99735.03;;;22.66;31.72
76940;BME280;65885;55.848;35.916;2023-05-29T07:32:24;99733.09;;;22.68;32.27
76940;BME280;65885;55.848;35.916;2023-05-29T07:34:52;99728.06;;;22.75;33.12
76940;BME280;65885;55.848;35.916;2023-05-29T07:37:22;99729.06;;;22.84;32.82
76940;BME280;65885;55.848;35.916;2023-05-29T07:39:49;99727.91;;;22.97;32.38
76940;BME280;65885;55.848;35.916;2023-05-29T07:42:16;99734.28;;;23.16;31.99
76940;BME280;65885;55.848;35.916;2023-05-29T07:44:44;99728.41;;;23.32;31.85
76940;BME280;65885;55.848;35.916;2023-05-29T07:47:11;99729.00;;;23.45;31.47
76940;BME280;65885;55.848;35.916;2023-05-29T07:49:38;99730.16;;;23.62;31.53
76940;BME280;65885;55.848;35.916;2023-05-29T07:52:06;99724.94;;;23.79;30.50
76940;BME280;65885;55.848;35.916;2023-05-29T07:54:36;99713.53;;;23.97;29.30
76940;BME280;65885;55.848;35.916;2023-05-29T07:57:03;99716.63;;;24.12;28.68
76940;BME280;65885;55.848;35.916;2023-05-29T07:59:35;99713.91;;;24.21;28.75
76940;BME280;65885;55.848;35.916;2023-05-29T08:02:03;99715.88;;;24.29;29.47
76940;BME280;65885;55.848;35.916;2023-05-29T08:04:31;99718.13;;;24.43;28.82
76940;BME280;65885;55.848;35.916;2023-05-29T08:06:59;99721.19;;;24.58;27.89
76940;BME280;65885;55.848;35.916;2023-05-29T08:09:27;99720.00;;;24.70;28.15
76940;BME280;65885;55.848;35.916;2023-05-29T08:11:56;99720.38;;;24.85;27.87
76940;BME280;65885;55.848;35.916;2023-05-29T08:14:23;99710.31;;;24.97;27.68
76940;BME280;65885;55.848;35.916;2023-05-29T08:16:51;99723.53;;;25.08;27.40
76940;BME280;65885;55.848;35.916;2023-05-29T08:19:18;99733.09;;;25.20;27.22
76940;BME280;65885;55.848;35.916;2023-05-29T08:21:46;99724.38;;;25.36;27.64
76940;BME280;65885;55.848;35.916;2023-05-29T08:24:14;99735.53;;;25.59;27.60
76940;BME280;65885;55.848;35.916;2023-05-29T08:26:41;99728.06;;;25.80;27.22
76940;BME280;65885;55.848;35.916;2023-05-29T08:29:10;99724.44;;;26.07;27.51
76940;BME280;65885;55.848;35.916;2023-05-29T08:31:38;99732.19;;;26.36;27.57
76940;BME280;65885;55.848;35.916;2023-05-29T08:34:05;99723.34;;;26.70;26.84
76940;BME280;65885;55.848;35.916;2023-05-29T08:36:33;99734.91;;;26.96;26.36
76940;BME280;65885;55.848;35.916;2023-05-29T08:39:00;99729.16;;;27.17;26.13
76940;BME280;65885;55.848;35.916;2023-05-29T08:41:33;99719.97;;;27.36;25.96
76940;BME280;65885;55.848;35.916;2023-05-29T08:44:04;99727.06;;;27.53;25.55
76940;BME280;65885;55.848;35.916;2023-05-29T08:46:35;99715.66;;;27.68;25.90
76940;BME280;65885;55.848;35.916;2023-05-29T08:49:04;99711.97;;;27.77;25.48
76940;BME280;65885;55.848;35.916;2023-05-29T08:51:37;99719.03;;;27.86;25.43
76940;BME280;65885;55.848;35.916;2023-05-29T08:54:04;99712.13;;;27.91;25.39
76940;BME280;65885;55.848;35.916;2023-05-29T08:56:33;99707.59;;;27.92;24.95
76940;BME280;65885;55.848;35.916;2023-05-29T08:59:01;99707.06;;;27.88;24.82
76940;BME280;65885;55.848;35.916;2023-05-29T09:01:30;99700.81;;;27.80;24.89
76940;BME280;65885;55.848;35.916;2023-05-29T09:04:00;99699.16;;;27.79;25.99
76940;BME280;65885;55.848;35.916;2023-05-29T09:06:27;99697.47;;;27.86;25.05
76940;BME280;65885;55.848;35.916;2023-05-29T09:08:55;99695.78;;;27.93;24.83
76940;BME280;65885;55.848;35.916;2023-05-29T09:11:23;99692.59;;;27.98;23.98
76940;BME280;65885;55.848;35.916;2023-05-29T09:13:52;99687.03;;;27.99;23.55
76940;BME280;65885;55.848;35.916;2023-05-29T09:16:19;99691.06;;;28.03;23.04
76940;BME280;65885;55.848;35.916;2023-05-29T09:18:47;99694.44;;;28.05;23.19
76940;BME280;65885;55.848;35.916;2023-05-29T09:21:25;99683.94;;;28.18;22.82
76940;BME280;65885;55.848;35.916;2023-05-29T09:23:54;99687.34;;;28.37;22.79
76940;BME280;65885;55.848;35.916;2023-05-29T09:26:21;99691.16;;;28.59;22.87
76940;BME280;65885;55.848;35.916;2023-05-29T09:28:49;99686.06;;;28.72;21.38
76940;BME280;65885;55.848;35.916;2023-05-29T09:31:29;99677.09;;;28.71;21.32
76940;BME280;65885;55.848;35.916;2023-05-29T09:34:01;99683.38;;;28.64;21.96
76940;BME280;65885;55.848;35.916;2023-05-29T09:36:31;99684.94;;;28.58;22.59
76940;BME280;65885;55.848;35.916;2023-05-29T09:39:02;99688.97;;;28.54;22.53
76940;BME280;65885;55.848;35.916;2023-05-29T09:41:30;99688.31;;;28.52;21.67
76940;BME280;65885;55.848;35.916;2023-05-29T09:44:00;99675.88;;;28.43;21.46
76940;BME280;65885;55.848;35.916;2023-05-29T09:46:33;99669.78;;;28.33;22.30
76940;BME280;65885;55.848;35.916;2023-05-29T09:49:01;99680.94;;;28.30;22.68
76940;BME280;65885;55.848;35.916;2023-05-29T09:51:30;99674.34;;;28.24;22.85
76940;BME280;65885;55.848;35.916;2023-05-29T09:53:58;99665.41;;;28.24;22.27
76940;BME280;65885;55.848;35.916;2023-05-29T09:56:27;99661.22;;;28.21;22.94
76940;BME280;65885;55.848;35.916;2023-05-29T09:58:56;99658.69;;;28.19;22.69
76940;BME280;65885;55.848;35.916;2023-05-29T10:01:24;99658.00;;;28.17;22.88
76940;BME280;65885;55.848;35.916;2023-05-29T10:03:52;99653.13;;;28.13;23.25
76940;BME280;65885;55.848;35.916;2023-05-29T10:06:20;99651.09;;;28.15;23.21
76940;BME280;65885;55.848;35.916;2023-05-29T10:08:50;99649.91;;;28.17;22.54
76940;BME280;65885;55.848;35.916;2023-05-29T10:11:21;99647.91;;;28.19;22.18
76940;BME280;65885;55.848;35.916;2023-05-29T10:13:52;99646.53;;;28.15;22.28
76940;BME280;65885;55.848;35.916;2023-05-29T10:16:21;99646.91;;;28.12;22.49
76940;BME280;65885;55.848;35.916;2023-05-29T10:18:53;99641.50;;;28.12;22.70
76940;BME280;65885;55.848;35.916;2023-05-29T10:21:22;99641.31;;;28.14;22.07
76940;BME280;65885;55.848;35.916;2023-05-29T10:23:54;99647.19;;;28.17;22.45
76940;BME280;65885;55.848;35.916;2023-05-29T10:26:24;99639.09;;;28.17;23.14
76940;BME280;65885;55.848;35.916;2023-05-29T10:29:02;99632.69;;;28.18;22.98
76940;BME280;65885;55.848;35.916;2023-05-29T10:31:38;99636.38;;;28.26;23.36
76940;BME280;65885;55.848;35.916;2023-05-29T10:34:18;99634.03;;;28.39;22.72
76940;BME280;65885;55.848;35.916;2023-05-29T10:36:54;99643.44;;;28.51;23.02
76940;BME280;65885;55.848;35.916;2023-05-29T10:39:25;99631.78;;;28.59;22.89
76940;BME280;65885;55.848;35.916;2023-05-29T10:41:53;99628.91;;;28.60;22.79
76940;BME280;65885;55.848;35.916;2023-05-29T10:44:39;99633.09;;;28.63;22.08
76940;BME280;65885;55.848;35.916;2023-05-29T10:47:09;99623.97;;;28.64;21.96
76940;BME280;65885;55.848;35.916;2023-05-29T10:49:38;99627.53;;;28.64;21.57
76940;BME280;65885;55.848;35.916;2023-05-29T10:52:06;99613.34;;;28.62;22.42
76940;BME280;65885;55.848;35.916;2023-05-29T10:54:51;99617.09;;;28.61;21.52
76940;BME280;65885;55.848;35.916;2023-05-29T10:57:21;99615.38;;;28.68;22.38
76940;BME280;65885;55.848;35.916;2023-05-29T11:00:04;99603.31;;;28.79;22.13
76940;BME280;65885;55.848;35.916;2023-05-29T11:02:39;99606.16;;;28.86;21.23
76940;BME280;65885;55.848;35.916;2023-05-29T11:05:23;99625.75;;;28.88;21.34
76940;BME280;65885;55.848;35.916;2023-05-29T11:07:53;99613.59;;;28.84;21.27
76940;BME280;65885;55.848;35.916;2023-05-29T11:10:58;99610.44;;;28.80;21.18
76940;BME280;65885;55.848;35.916;2023-05-29T11:13:31;99599.31;;;28.75;21.45
76940;BME280;65885;55.848;35.916;2023-05-29T11:16:11;99607.22;;;28.77;21.94
76940;BME280;65885;55.848;35.916;2023-05-29T11:18:40;99603.47;;;28.86;22.28
76940;BME280;65885;55.848;35.916;2023-05-29T11:21:21;99595.84;;;28.97;22.73
76940;BME280;65885;55.848;35.916;2023-05-29T11:23:51;99597.97;;;29.10;21.78
76940;BME280;65885;55.848;35.916;2023-05-29T11:26:22;99594.38;;;29.18;21.30
76940;BME280;65885;55.848;35.916;2023-05-29T11:28:51;99595.00;;;29.20;21.46
76940;BME280;65885;55.848;35.916;2023-05-29T11:31:18;99593.53;;;29.17;21.31
76940;BME280;65885;55.848;35.916;2023-05-29T11:33:49;99594.06;;;29.13;21.44
76940;BME280;65885;55.848;35.916;2023-05-29T11:36:18;99596.38;;;29.16;21.20
76940;BME280;65885;55.848;35.916;2023-05-29T11:38:46;99586.84;;;29.28;21.64
76940;BME280;65885;55.848;35.916;2023-05-29T11:41:13;99585.50;;;29.47;21.75
76940;BME280;65885;55.848;35.916;2023-05-29T11:43:42;99590.25;;;29.68;20.79
76940;BME280;65885;55.848;35.916;2023-05-29T11:46:16;99583.84;;;29.83;20.75
76940;BME280;65885;55.848;35.916;2023-05-29T11:48:45;99587.03;;;29.87;20.12
76940;BME280;65885;55.848;35.916;2023-05-29T11:51:12;99578.09;;;29.87;20.77
76940;BME280;65885;55.848;35.916;2023-05-29T11:53:40;99588.63;;;29.81;20.36
76940;BME280;65885;55.848;35.916;2023-05-29T11:56:08;99583.94;;;29.75;19.88
76940;BME280;65885;55.848;35.916;2023-05-29T11:58:37;99585.22;;;29.65;20.43
76940;BME280;65885;55.848;35.916;2023-05-29T12:01:06;99572.13;;;29.53;20.33
76940;BME280;65885;55.848;35.916;2023-05-29T12:03:39;99570.88;;;29.41;20.48
76940;BME280;65885;55.848;35.916;2023-05-29T12:06:07;99566.72;;;29.30;20.26
76940;BME280;65885;55.848;35.916;2023-05-29T12:08:36;99561.09;;;29.17;20.52
76940;BME280;65885;55.848;35.916;2023-05-29T12:11:04;99567.28;;;29.03;20.49
76940;BME280;65885;55.848;35.916;2023-05-29T12:13:33;99568.00;;;28.89;20.50
76940;BME280;65885;55.848;35.916;2023-05-29T12:16:03;99560.16;;;28.71;20.71
76940;BME280;65885;55.848;35.916;2023-05-29T12:18:33;99562.75;;;28.56;21.12
76940;BME280;65885;55.848;35.916;2023-05-29T12:21:03;99561.50;;;28.44;21.04
76940;BME280;65885;55.848;35.916;2023-05-29T12:23:30;99559.84;;;28.35;20.92
76940;BME280;65885;55.848;35.916;2023-05-29T12:25:58;99557.31;;;28.25;20.30
76940;BME280;65885;55.848;35.916;2023-05-29T12:28:26;99554.34;;;28.12;20.76
76940;BME280;65885;55.848;35.916;2023-05-29T12:30:58;99554.34;;;27.96;20.50
76940;BME280;65885;55.848;35.916;2023-05-29T12:33:28;99552.91;;;27.77;20.86
76940;BME280;65885;55.848;35.916;2023-05-29T12:36:04;99553.72;;;27.61;21.44
76940;BME280;65885;55.848;35.916;2023-05-29T12:38:32;99554.06;;;27.50;21.42
76940;BME280;65885;55.848;35.916;2023-05-29T12:40:59;99547.66;;;27.43;21.59
76940;BME280;65885;55.848;35.916;2023-05-29T12:43:27;99550.03;;;27.37;21.57
76940;BME280;65885;55.848;35.916;2023-05-29T12:45:55;99542.47;;;27.33;21.55
76940;BME280;65885;55.848;35.916;2023-05-29T12:48:27;99551.56;;;27.32;21.68
76940;BME280;65885;55.848;35.916;2023-05-29T12:50:54;99548.50;;;27.27;21.98
76940;BME280;65885;55.848;35.916;2023-05-29T12:53:28;99544.66;;;27.21;21.83
76940;BME280;65885;55.848;35.916;2023-05-29T12:55:56;99542.63;;;27.15;21.67
76940;BME280;65885;55.848;35.916;2023-05-29T12:58:24;99542.63;;;27.07;21.99
76940;BME280;65885;55.848;35.916;2023-05-29T13:00:53;99554.34;;;26.98;22.23
76940;BME280;65885;55.848;35.916;2023-05-29T13:03:22;99543.41;;;26.91;22.08
76940;BME280;65885;55.848;35.916;2023-05-29T13:05:50;99544.75;;;26.87;22.51
76940;BME280;65885;55.848;35.916;2023-05-29T13:08:19;99550.31;;;26.86;22.95